Time,TemperatureF,DewpointF,PressureIn,WindDirection,WindDirectionDegrees,WindSpeedMPH,WindSpeedGustMPH,Humidity,HourlyPrecipIn,Conditions,Clouds,dailyrainin,SolarRadiationWatts/m^2,SoftwareType,DateUTC
2013-07-01 00:11:00,66.1,65.0,29.68,WSW,240,0.0,0.0,97,0.00,,,0.08,0,weatherlink.com 1.10,2013-07-01 04:11:00,
2013-07-01 00:26:00,66.1,66.0,29.68,WSW,240,0.0,2.0,98,0.00,,,0.08,0,weatherlink.com 1.10,2013-07-01 04:26:00,
2013-07-01 00:41:00,66.1,66.0,29.68,WSW,240,0.0,1.0,98,0.00,,,0.08,0,weatherlink.com 1.10,2013-07-01 04:41:00,
2013-07-01 00:56:00,66.2,66.0,29.68,WSW,240,0.0,1.0,98,0.00,,,0.08,0,weatherlink.com 1.10,2013-07-01 04:56:00,
2013-07-01 01:11:00,66.0,65.0,29.68,WSW,240,0.0,1.0,97,0.00,,,0.00,0,weatherlink.com 1.10,2013-07-01 05:11:00,
2013-07-01 01:26:00,65.8,65.0,29.67,WSW,240,0.0,0.0,97,0.00,,,0.00,0,weatherlink.com 1.10,2013-07-01 05:26:00,
2013-07-01 01:41:00,65.6,65.0,29.67,WSW,240,0.0,1.0,97,0.00,,,0.00,0,weatherlink.com 1.10,2013-07-01 05:41:00,
2013-07-01 01:56:00,65.4,65.0,29.67,WSW,240,0.0,0.0,98,0.00,,,0.00,0,weatherlink.com 1.10,2013-07-01 05:56:00,
2013-07-01 02:11:00,65.2,65.0,29.68,WSW,240,0.0,1.0,98,0.00,,,0.00,0,weatherlink.com 1.10,2013-07-01 06:11:00,
2013-07-01 02:26:00,65.2,65.0,29.68,WSW,240,0.0,1.0,98,0.00,,,0.00,0,weatherlink.com 1.10,2013-07-01 06:26:00,
2013-07-01 02:41:00,65.1,65.0,29.68,WSW,240,0.0,0.0,98,0.00,,,0.00,0,weatherlink.com 1.10,2013-07-01 06:41:00,
2013-07-01 02:56:00,65.4,65.0,29.66,WSW,240,0.0,1.0,99,0.00,,,0.00,0,weatherlink.com 1.10,2013-07-01 06:56:00,
2013-07-01 03:11:00,65.4,65.0,29.67,WSW,240,0.0,0.0,98,0.00,,,0.00,0,weatherlink.com 1.10,2013-07-01 07:11:00,
2013-07-01 03:26:00,65.5,65.0,29.66,WSW,240,0.0,2.0,98,0.00,,,0.00,0,weatherlink.com 1.10,2013-07-01 07:26:00,
2013-07-01 03:41:00,65.5,65.0,29.67,WSW,240,0.0,0.0,98,0.04,,,0.04,0,weatherlink.com 1.10,2013-07-01 07:41:00,
2013-07-01 03:57:00,65.4,65.0,29.67,WSW,240,0.0,0.0,98,0.04,,,0.04,0,weatherlink.com 1.10,2013-07-01 07:57:00,
2013-07-01 04:12:00,65.2,65.0,29.66,WSW,240,0.0,0.0,98,0.04,,,0.04,0,weatherlink.com 1.10,2013-07-01 08:12:00,
2013-07-01 04:27:00,65.1,65.0,29.66,WSW,240,0.0,0.0,98,0.03,,,0.04,0,weatherlink.com 1.10,2013-07-01 08:27:00,
2013-07-01 04:42:00,64.9,64.0,29.66,WSW,240,0.0,0.0,98,0.00,,,0.04,0,weatherlink.com 1.10,2013-07-01 08:42:00,
2013-07-01 04:57:00,64.5,64.0,29.66,WSW,240,0.0,0.0,98,0.00,,,0.04,0,weatherlink.com 1.10,2013-07-01 08:57:00,
2013-07-01 05:12:00,64.1,64.0,29.66,WSW,240,0.0,0.0,98,0.00,,,0.04,0,weatherlink.com 1.10,2013-07-01 09:12:00,
2013-07-01 05:27:00,63.9,63.0,29.67,WSW,240,0.0,0.0,98,0.00,,,0.04,0,weatherlink.com 1.10,2013-07-01 09:27:00,
2013-07-01 05:42:00,63.7,63.0,29.67,WSW,240,0.0,0.0,98,0.01,,,0.05,0,weatherlink.com 1.10,2013-07-01 09:42:00,
2013-07-01 05:57:00,63.4,63.0,29.68,WSW,240,0.0,0.0,98,0.01,,,0.05,0,weatherlink.com 1.10,2013-07-01 09:57:00,
2013-07-01 06:12:00,63.5,63.0,29.68,WSW,240,0.0,0.0,99,0.01,,,0.05,0,weatherlink.com 1.10,2013-07-01 10:12:00,
2013-07-01 06:27:00,63.1,63.0,29.68,WSW,240,0.0,0.0,98,0.01,,,0.05,0,weatherlink.com 1.10,2013-07-01 10:27:00,
2013-07-01 06:42:00,63.2,63.0,29.69,North,5,1.0,3.0,99,0.00,,,0.05,5,weatherlink.com 1.10,2013-07-01 10:42:00,
2013-07-01 06:57:00,63.9,64.0,29.69,North,355,1.0,2.0,99,0.00,,,0.05,18,weatherlink.com 1.10,2013-07-01 10:57:00,
2013-07-01 07:12:00,64.4,64.0,29.70,North,355,0.0,2.0,99,0.00,,,0.05,35,weatherlink.com 1.10,2013-07-01 11:12:00,
2013-07-01 07:27:00,65.1,65.0,29.70,North,355,1.0,1.0,100,0.00,,,0.05,49,weatherlink.com 1.10,2013-07-01 11:27:00,
2013-07-01 07:42:00,65.5,65.0,29.71,North,355,0.0,1.0,99,0.00,,,0.05,60,weatherlink.com 1.10,2013-07-01 11:42:00,
2013-07-01 07:57:00,65.2,65.0,29.72,NNE,17,1.0,3.0,99,0.00,,,0.05,72,weatherlink.com 1.10,2013-07-01 11:57:00,
2013-07-01 08:12:00,65.3,65.0,29.72,North,11,2.0,2.0,99,0.00,,,0.05,84,weatherlink.com 1.10,2013-07-01 12:12:00,
2013-07-01 08:27:00,66.0,66.0,29.73,North,9,0.0,2.0,99,0.00,,,0.05,197,weatherlink.com 1.10,2013-07-01 12:27:00,
2013-07-01 08:42:00,66.5,66.0,29.74,North,10,0.0,4.0,99,0.00,,,0.05,123,weatherlink.com 1.10,2013-07-01 12:42:00,
2013-07-01 08:57:00,66.7,66.0,29.74,North,10,1.0,2.0,99,0.00,,,0.05,97,weatherlink.com 1.10,2013-07-01 12:57:00,
2013-07-01 09:12:00,67.2,67.0,29.74,NW,320,2.0,3.0,98,0.00,,,0.05,151,weatherlink.com 1.10,2013-07-01 13:12:00,
2013-07-01 09:27:00,67.3,66.0,29.74,NNW,346,0.0,3.0,95,0.00,,,0.05,88,weatherlink.com 1.10,2013-07-01 13:27:00,
2013-07-01 09:42:00,67.4,66.0,29.74,NE,37,0.0,4.0,94,0.00,,,0.05,153,weatherlink.com 1.10,2013-07-01 13:42:00,
2013-07-01 09:57:00,68.5,67.0,29.74,North,360,0.0,4.0,93,0.00,,,0.05,169,weatherlink.com 1.10,2013-07-01 13:57:00,
2013-07-01 10:12:00,69.3,67.0,29.73,NNE,24,0.0,3.0,93,0.00,,,0.05,148,weatherlink.com 1.10,2013-07-01 14:12:00,
2013-07-01 10:27:00,70.3,68.0,29.73,NW,315,4.0,4.0,93,0.00,,,0.05,178,weatherlink.com 1.10,2013-07-01 14:27:00,
2013-07-01 10:42:00,71.2,68.0,29.73,West,271,1.0,2.0,90,0.00,,,0.05,362,weatherlink.com 1.10,2013-07-01 14:42:00,
2013-07-01 10:58:00,72.4,69.0,29.73,North,5,0.0,2.0,89,0.00,,,0.05,856,weatherlink.com 1.10,2013-07-01 14:58:00,
2013-07-01 11:13:00,74.0,70.0,29.73,West,280,0.0,2.0,88,0.00,,,0.05,974,weatherlink.com 1.10,2013-07-01 15:13:00,
2013-07-01 11:28:00,74.4,70.0,29.73,WSW,238,0.0,3.0,85,0.00,,,0.05,840,weatherlink.com 1.10,2013-07-01 15:28:00,
2013-07-01 11:43:00,76.2,69.0,29.73,WSW,240,3.0,3.0,79,0.00,,,0.05,853,weatherlink.com 1.10,2013-07-01 15:43:00,
2013-07-01 11:58:00,76.9,70.0,29.73,South,189,0.0,3.0,79,0.00,,,0.05,995,weatherlink.com 1.10,2013-07-01 15:58:00,
2013-07-01 12:13:00,78.0,68.0,29.73,NE,54,2.0,3.0,72,0.00,,,0.05,1113,weatherlink.com 1.10,2013-07-01 16:13:00,
2013-07-01 12:28:00,77.8,69.0,29.73,West,267,1.0,2.0,75,0.00,,,0.05,334,weatherlink.com 1.10,2013-07-01 16:28:00,
2013-07-01 12:43:00,77.8,70.0,29.72,SW,235,0.0,4.0,77,0.00,,,0.05,1013,weatherlink.com 1.10,2013-07-01 16:43:00,
2013-07-01 12:58:00,80.0,71.0,29.71,NNE,17,1.0,4.0,73,0.00,,,0.05,1116,weatherlink.com 1.10,2013-07-01 16:58:00,
2013-07-01 13:13:00,80.7,69.0,29.71,WSW,249,3.0,6.0,67,0.00,,,0.05,264,weatherlink.com 1.10,2013-07-01 17:13:00,
2013-07-01 13:28:00,77.6,68.0,29.71,West,274,3.0,3.0,71,0.00,,,0.05,325,weatherlink.com 1.10,2013-07-01 17:28:00,
2013-07-01 13:43:00,79.8,70.0,29.70,SSW,213,4.0,4.0,72,0.00,,,0.05,1011,weatherlink.com 1.10,2013-07-01 17:43:00,
2013-07-01 13:58:00,80.0,69.0,29.68,NNW,329,1.0,4.0,69,0.00,,,0.05,1046,weatherlink.com 1.10,2013-07-01 17:58:00,
2013-07-01 14:13:00,80.2,66.0,29.68,WSW,248,4.0,5.0,62,0.00,,,0.05,988,weatherlink.com 1.10,2013-07-01 18:13:00,
2013-07-01 14:28:00,77.2,67.0,29.69,WSW,248,4.0,5.0,71,0.00,,,0.05,127,weatherlink.com 1.10,2013-07-01 18:28:00,
2013-07-01 14:43:00,70.7,67.0,29.68,SSW,199,1.0,8.0,89,0.11,,,0.16,248,weatherlink.com 1.10,2013-07-01 18:43:00,
2013-07-01 14:58:00,69.4,68.0,29.69,WSW,252,2.0,3.0,94,0.11,,,0.16,381,weatherlink.com 1.10,2013-07-01 18:58:00,
2013-07-01 15:13:00,69.5,68.0,29.71,WSW,257,0.0,3.0,93,0.11,,,0.16,186,weatherlink.com 1.10,2013-07-01 19:13:00,
2013-07-01 15:30:00,69.4,66.0,29.71,ENE,58,0.0,3.0,90,0.10,,,0.16,207,weatherlink.com 1.10,2013-07-01 19:30:00,
2013-07-01 15:43:00,69.1,66.0,29.70,ENE,58,0.0,1.0,91,0.00,,,0.16,283,weatherlink.com 1.10,2013-07-01 19:43:00,
2013-07-01 15:58:00,69.5,66.0,29.71,NW,321,4.0,5.0,89,0.00,,,0.16,773,weatherlink.com 1.10,2013-07-01 19:58:00,
2013-07-01 16:12:00,70.4,66.0,29.71,North,11,8.0,9.0,87,0.00,,,0.16,114,weatherlink.com 1.10,2013-07-01 20:12:00,
2013-07-01 16:29:00,69.9,66.0,29.70,North,360,3.0,7.0,87,0.00,,,0.16,179,weatherlink.com 1.10,2013-07-01 20:29:00,
2013-07-01 16:43:00,69.5,67.0,29.71,North,5,0.0,1.0,90,0.00,,,0.16,26,weatherlink.com 1.10,2013-07-01 20:43:00,
2013-07-01 16:58:00,68.4,66.0,29.74,West,263,3.0,3.0,91,0.10,,,0.26,0,weatherlink.com 1.10,2013-07-01 20:58:00,
2013-07-01 17:17:00,65.7,64.0,29.77,SE,143,0.0,8.0,93,0.80,,,0.96,16,weatherlink.com 1.10,2013-07-01 21:17:00,
2013-07-01 17:27:00,64.1,62.0,29.76,NW,311,2.0,5.0,93,0.88,,,1.04,9,weatherlink.com 1.10,2013-07-01 21:27:00,
2013-07-01 17:43:00,64.0,63.0,29.77,NNW,342,2.0,6.0,97,0.98,,,1.14,42,weatherlink.com 1.10,2013-07-01 21:43:00,
2013-07-01 17:58:00,64.5,64.0,29.76,NE,42,0.0,5.0,98,0.96,,,1.22,118,weatherlink.com 1.10,2013-07-01 21:58:00,
2013-07-01 18:13:00,64.7,64.0,29.76,West,270,2.0,3.0,97,0.34,,,1.23,76,weatherlink.com 1.10,2013-07-01 22:13:00,
2013-07-01 18:28:00,65.0,65.0,29.74,NW,319,0.0,0.0,98,0.19,,,1.23,174,weatherlink.com 1.10,2013-07-01 22:28:00,
2013-07-01 18:43:00,66.0,66.0,29.73,NW,319,0.0,1.0,98,0.09,,,1.23,207,weatherlink.com 1.10,2013-07-01 22:43:00,
2013-07-01 18:58:00,68.2,68.0,29.75,WSW,248,0.0,2.0,99,0.01,,,1.23,306,weatherlink.com 1.10,2013-07-01 22:58:00,
2013-07-01 19:13:00,69.0,67.0,29.74,WNW,303,0.0,2.0,94,0.00,,,1.23,304,weatherlink.com 1.10,2013-07-01 23:13:00,
2013-07-01 19:29:00,68.4,66.0,29.75,NW,324,0.0,2.0,93,0.00,,,1.23,54,weatherlink.com 1.10,2013-07-01 23:29:00,
2013-07-01 19:44:00,67.6,66.0,29.76,SW,232,0.0,1.0,95,0.00,,,1.23,46,weatherlink.com 1.10,2013-07-01 23:44:00,
2013-07-01 19:59:00,67.6,66.0,29.76,NNE,30,1.0,1.0,95,0.00,,,1.23,178,weatherlink.com 1.10,2013-07-01 23:59:00,
2013-07-01 20:14:00,68.5,67.0,29.77,NNE,30,0.0,2.0,94,0.00,,,1.23,127,weatherlink.com 1.10,2013-07-02 00:14:00,
2013-07-01 20:29:00,67.8,66.0,29.77,NNE,30,0.0,2.0,94,0.00,,,1.23,19,weatherlink.com 1.10,2013-07-02 00:29:00,
2013-07-01 20:44:00,67.2,66.0,29.77,NNE,30,0.0,0.0,94,0.01,,,1.24,9,weatherlink.com 1.10,2013-07-02 00:44:00,
2013-07-01 20:59:00,66.6,65.0,29.77,NNE,30,0.0,0.0,95,0.01,,,1.24,5,weatherlink.com 1.10,2013-07-02 00:59:00,
2013-07-01 21:14:00,66.1,65.0,29.77,NNE,30,0.0,0.0,96,0.01,,,1.24,0,weatherlink.com 1.10,2013-07-02 01:14:00,
2013-07-01 21:29:00,65.6,65.0,29.77,NNE,30,0.0,0.0,96,0.01,,,1.24,0,weatherlink.com 1.10,2013-07-02 01:29:00,
2013-07-01 21:44:00,65.0,64.0,29.76,NNE,30,0.0,0.0,96,0.00,,,1.24,0,weatherlink.com 1.10,2013-07-02 01:44:00,
2013-07-01 21:59:00,64.5,64.0,29.77,NNE,30,0.0,0.0,97,0.00,,,1.24,0,weatherlink.com 1.10,2013-07-02 01:59:00,
2013-07-01 22:14:00,64.1,63.0,29.78,NNE,30,0.0,0.0,97,0.00,,,1.24,0,weatherlink.com 1.10,2013-07-02 02:14:00,
2013-07-01 22:29:00,63.8,63.0,29.78,NNE,30,0.0,0.0,97,0.00,,,1.24,0,weatherlink.com 1.10,2013-07-02 02:29:00,
2013-07-01 22:44:00,63.4,63.0,29.78,NNE,30,0.0,0.0,98,0.00,,,1.24,0,weatherlink.com 1.10,2013-07-02 02:44:00,
2013-07-01 22:59:00,63.2,63.0,29.79,NNE,30,0.0,1.0,98,0.00,,,1.24,0,weatherlink.com 1.10,2013-07-02 02:59:00,
2013-07-01 23:14:00,63.1,63.0,29.79,NNE,30,0.0,0.0,98,0.00,,,1.24,0,weatherlink.com 1.10,2013-07-02 03:14:00,
2013-07-01 23:29:00,62.9,62.0,29.79,NNE,30,0.0,0.0,98,0.00,,,1.24,0,weatherlink.com 1.10,2013-07-02 03:29:00,
2013-07-01 23:44:00,62.6,62.0,29.79,NNE,30,0.0,0.0,98,0.00,,,1.24,0,weatherlink.com 1.10,2013-07-02 03:44:00,
2013-07-01 23:59:00,62.2,62.0,29.78,NNE,30,0.0,0.0,98,0.00,,,1.24,0,weatherlink.com 1.10,2013-07-02 03:59:00,